»·PEaware :: N172TT KBFL-KVNY

N172TT :: KBFL-KVNY

FLIGHT INFORMATION

Flight Status: Arrived
Operator: Privately registered:
United States
More flights under this callsign
Pilot: Thomas T. (19955)
Aircraft: CESSNA 172 SKYHAWK
(C172)
More flights by this aircraft type
Origin: KBFL Meadows
United States
Destination: KVNY Van Nuys
United States
More flights between these airports :: More routes between these airports
Route: +
File this flight plan on PilotEdge
Remarks:
Altitude:
(Current/Filed)
7,500ft
Speed:
(Current/Filed)
0kts
Departed: 21-Aug-18 11:22 AM
Arrived: 21-Aug-18 12:18 PM
Distance/Time
Traveled:
79nm/0:56
Distance/Time
To Go:
Arrived

Flight Plot

Page will automatically refresh every two minutes.

Flight plan parsing failed; only flown route is shown


Map Options




Map Legend


Flown Route
Filed Route
Departure Airport
Arrival Airport
Navaid (VOR, NDB)
Fix

Horizontal Profiles

Position Reports

Time Latitude Longitude Heading Altitude Ground
Speed
21-Aug-18 11:15 35.429176 -119.046188 200 494ft 0kts
21-Aug-18 11:16 35.429176 -119.046188 200 494ft 0kts
21-Aug-18 11:17 35.429176 -119.046188 200 494ft 0kts
21-Aug-18 11:18 35.429176 -119.046188 200 494ft 0kts
21-Aug-18 11:19 35.428818 -119.046688 232 491ft 11kts
21-Aug-18 11:20 35.425882 -119.044438 169 481ft 14kts
21-Aug-18 11:21 35.425592 -119.044699 242 479ft 0kts
21-Aug-18 11:22 35.425592 -119.044699 242 479ft 0kts
21-Aug-18 11:23 35.428547 -119.049771 315 506ft 71kts
21-Aug-18 11:24 35.440632 -119.064381 315 1248ft 72kts
21-Aug-18 11:25 35.455480 -119.082098 319 1560ft 83kts
21-Aug-18 11:26 35.474762 -119.100986 325 1706ft 93kts
21-Aug-18 11:27 35.496519 -119.120698 323 1748ft 100kts
21-Aug-18 11:28 35.518493 -119.142579 318 1749ft 102kts
21-Aug-18 11:29 35.539001 -119.166787 313 1749ft 103kts
21-Aug-18 11:30 35.557831 -119.193364 298 1748ft 103kts
21-Aug-18 11:31 35.541932 -119.206434 151 2019ft 90kts
21-Aug-18 11:32 35.519470 -119.188414 143 2825ft 100kts
21-Aug-18 11:33 35.496947 -119.168126 144 3624ft 100kts
21-Aug-18 11:34 35.474200 -119.149070 145 4422ft 98kts
21-Aug-18 11:35 35.450490 -119.135312 157 5203ft 95kts
21-Aug-18 11:36 35.426131 -119.123192 157 6011ft 91kts
21-Aug-18 11:37 35.403243 -119.111830 157 6806ft 87kts
21-Aug-18 11:38 35.381183 -119.100882 157 7496ft 94kts
21-Aug-18 11:39 35.352345 -119.086786 158 7556ft 118kts
21-Aug-18 11:40 35.321716 -119.071945 158 7556ft 118kts
21-Aug-18 11:41 35.291059 -119.057148 158 7556ft 118kts
21-Aug-18 11:42 35.260327 -119.042371 158 7555ft 119kts
21-Aug-18 11:43 35.229534 -119.027619 158 7555ft 119kts
21-Aug-18 11:44 35.199140 -119.013114 158 7555ft 119kts
21-Aug-18 11:45 35.168225 -118.998415 158 7554ft 119kts
21-Aug-18 11:46 35.137335 -118.983784 158 7554ft 119kts
21-Aug-18 11:47 35.106533 -118.969250 158 7554ft 119kts
21-Aug-18 11:48 35.075575 -118.954699 158 7553ft 119kts
21-Aug-18 11:49 35.044846 -118.939708 156 7553ft 119kts
21-Aug-18 11:50 35.014525 -118.923311 155 7553ft 119kts
21-Aug-18 11:51 34.983998 -118.906829 155 7553ft 121kts
21-Aug-18 11:52 34.953160 -118.890237 155 7553ft 121kts
21-Aug-18 11:53 34.922234 -118.873657 155 7552ft 121kts
21-Aug-18 11:54 34.892363 -118.857699 155 7552ft 121kts
21-Aug-18 11:55 34.861760 -118.841407 156 7551ft 121kts
21-Aug-18 11:56 34.830907 -118.825041 156 7551ft 121kts
21-Aug-18 11:57 34.799904 -118.808656 156 7551ft 121kts
21-Aug-18 11:58 34.768670 -118.792208 156 7448ft 127kts
21-Aug-18 11:59 34.737146 -118.775673 156 7445ft 122kts
21-Aug-18 12:00 34.706237 -118.759514 156 7444ft 121kts
21-Aug-18 12:01 34.675445 -118.743474 156 7444ft 121kts
21-Aug-18 12:02 34.644184 -118.727782 158 7443ft 121kts
21-Aug-18 12:03 34.612735 -118.713077 158 7443ft 121kts
21-Aug-18 12:04 34.581386 -118.698475 158 7442ft 121kts
21-Aug-18 12:05 34.549921 -118.683878 158 7442ft 121kts
21-Aug-18 12:06 34.518423 -118.669323 158 7441ft 121kts
21-Aug-18 12:07 34.486750 -118.654774 158 7231ft 120kts
21-Aug-18 12:08 34.455430 -118.640464 159 6899ft 121kts
21-Aug-18 12:09 34.423912 -118.626138 159 6398ft 121kts
21-Aug-18 12:10 34.392527 -118.611930 159 5900ft 121kts
21-Aug-18 12:11 34.361751 -118.598058 159 5397ft 112kts
21-Aug-18 12:12 34.333591 -118.582850 154 4787ft 111kts
21-Aug-18 12:13 34.305927 -118.567028 154 4020ft 110kts
21-Aug-18 12:14 34.287617 -118.539968 100 3216ft 110kts
21-Aug-18 12:15 34.279876 -118.506582 142 2541ft 92kts
21-Aug-18 12:16 34.260227 -118.496435 167 1941ft 72kts
21-Aug-18 12:17 34.241596 -118.493566 174 1346ft 68kts
21-Aug-18 12:18 34.222351 -118.491544 174 965ft 70kts
21-Aug-18 12:19 34.210176 -118.490994 250 806ft 11kts
21-Aug-18 12:20 34.207913 -118.491376 173 806ft 12kts
21-Aug-18 12:21 34.207344 -118.492064 128 806ft 0kts

Navigation Log

Ident Type
Flight plan parsing failed, navigation log unavailable